createdAt,value
2018-02-09T00:01:56.643Z,42.08
2018-02-09T00:04:25.711Z,48.63
2018-02-09T00:06:54.050Z,41.88
2018-02-09T00:09:22.337Z,45.10
2018-02-09T00:11:50.666Z,48.13
2018-02-09T00:14:19.775Z,60.40
2018-02-09T00:16:48.158Z,42.60
2018-02-09T00:19:16.558Z,43.90
2018-02-09T00:21:45.071Z,51.88
2018-02-09T00:24:13.588Z,65.28
2018-02-09T00:26:42.581Z,43.92
2018-02-09T00:29:11.908Z,50.85
2018-02-09T00:31:41.666Z,39.72
2018-02-09T00:34:11.443Z,51.75
2018-02-09T00:36:39.990Z,45.12
2018-02-09T00:39:08.414Z,36.03
2018-02-09T00:41:36.846Z,52.08
2018-02-09T00:44:05.906Z,33.20
2018-02-09T00:46:34.258Z,45.45
2018-02-09T00:49:03.465Z,45.97
2018-02-09T00:51:31.847Z,43.25
2018-02-09T00:54:01.268Z,47.20
2018-02-09T00:56:29.781Z,45.75
2018-02-09T00:58:58.181Z,47.10
2018-02-09T01:01:26.485Z,49.58
2018-02-09T01:03:54.819Z,49.72
2018-02-09T01:06:23.147Z,40.08
2018-02-09T01:08:52.243Z,48.28
2018-02-09T01:11:22.064Z,41.88
2018-02-09T01:13:50.410Z,39.88
2018-02-09T01:16:19.471Z,41.53
2018-02-09T01:18:47.820Z,37.13
2018-02-09T01:21:17.367Z,45.00
2018-02-09T01:23:46.025Z,43.22
2018-02-09T01:26:15.060Z,52.00
2018-02-09T01:28:43.718Z,44.60
2018-02-09T01:31:13.273Z,36.75
2018-02-09T01:33:41.737Z,32.30
2018-02-09T01:36:10.200Z,41.95
2018-02-09T01:38:38.760Z,53.45
2018-02-09T01:41:08.559Z,62.05
2018-02-09T01:43:36.883Z,58.00
2018-02-09T01:46:05.270Z,62.08
2018-02-09T01:48:33.663Z,50.05
2018-02-09T01:51:03.154Z,51.63
2018-02-09T01:53:31.840Z,57.90
2018-02-09T01:56:00.297Z,60.67
2018-02-09T01:58:28.655Z,64.25
2018-02-09T02:00:57.011Z,59.50
2018-02-09T02:03:25.308Z,66.03
2018-02-09T02:05:53.635Z,55.60
2018-02-09T02:08:22.730Z,58.08
2018-02-09T02:10:51.022Z,54.25
2018-02-09T02:13:19.735Z,56.90
2018-02-09T02:15:48.236Z,50.60
2018-02-09T02:18:16.675Z,47.88
2018-02-09T02:20:45.454Z,49.90
2018-02-09T02:23:14.703Z,51.55
2018-02-09T02:25:44.280Z,65.05
2018-02-09T02:28:14.560Z,47.67
2018-02-09T02:30:43.290Z,54.70
2018-02-09T02:33:12.806Z,48.63
2018-02-09T02:35:41.742Z,50.53
2018-02-09T02:38:12.937Z,46.30
2018-02-09T02:40:41.877Z,49.95
2018-02-09T02:43:10.370Z,48.38
2018-02-09T02:45:39.988Z,47.90
2018-02-09T02:48:08.690Z,47.53
2018-02-09T02:50:37.781Z,47.60
2018-02-09T02:53:07.014Z,54.25
2018-02-09T02:55:35.590Z,49.65
2018-02-09T02:58:03.943Z,46.33
2018-02-09T03:00:33.027Z,39.42
2018-02-09T03:03:02.145Z,52.42
2018-02-09T03:05:30.756Z,44.75
2018-02-09T03:07:59.205Z,41.67
2018-02-09T03:10:27.663Z,44.40
2018-02-09T03:12:55.964Z,41.10
2018-02-09T03:15:24.275Z,42.00
2018-02-09T03:17:52.611Z,49.50
2018-02-09T03:20:20.956Z,44.65
2018-02-09T03:22:49.299Z,49.60
2018-02-09T03:25:17.786Z,38.97
2018-02-09T03:27:46.600Z,41.37
2018-02-09T03:30:16.204Z,37.75
2018-02-09T03:32:45.018Z,49.35
2018-02-09T03:35:13.493Z,38.03
2018-02-09T03:37:43.137Z,45.88
2018-02-09T03:40:12.659Z,38.17
2018-02-09T03:42:42.227Z,47.42
2018-02-09T03:45:10.819Z,45.00
2018-02-09T03:47:39.809Z,46.70
2018-02-09T03:50:09.808Z,45.40
2018-02-09T03:52:38.946Z,50.63
2018-02-09T03:55:08.411Z,44.90
2018-02-09T03:57:37.694Z,46.60
2018-02-09T04:00:09.791Z,51.08
2018-02-09T04:02:40.101Z,55.67
2018-02-09T04:05:10.167Z,61.58
2018-02-09T04:07:38.527Z,48.13
2018-02-09T04:10:07.097Z,56.35
2018-02-09T04:12:35.950Z,50.85
2018-02-09T04:15:04.890Z,47.90
2018-02-09T04:17:34.924Z,52.30
2018-02-09T04:20:05.143Z,43.42
2018-02-09T04:22:33.593Z,49.25
2018-02-09T04:25:02.542Z,45.92
2018-02-09T04:27:31.997Z,41.65
2018-02-09T04:30:01.667Z,43.47
2018-02-09T04:32:31.414Z,41.22
2018-02-09T04:35:01.158Z,58.70
2018-02-09T04:37:30.832Z,56.92
2018-02-09T04:40:00.873Z,46.22
2018-02-09T04:42:31.274Z,45.35
2018-02-09T04:45:00.649Z,51.97
2018-02-09T04:47:29.716Z,45.35
2018-02-09T04:49:58.735Z,50.67
2018-02-09T04:52:28.234Z,45.72
2018-02-09T04:54:57.404Z,47.10
2018-02-09T04:57:26.564Z,46.33
2018-02-09T04:59:55.467Z,39.05
2018-02-09T05:02:24.250Z,47.40
2018-02-09T05:04:53.926Z,48.47
2018-02-09T05:07:24.720Z,60.00
2018-02-09T05:09:55.078Z,47.38
2018-02-09T05:12:26.242Z,57.90
2018-02-09T05:14:56.116Z,43.30
2018-02-09T05:17:26.290Z,53.17
2018-02-09T05:19:55.482Z,55.17
2018-02-09T05:22:25.057Z,40.00
2018-02-09T05:24:53.979Z,46.37
2018-02-09T05:27:23.654Z,43.47
2018-02-09T05:29:53.894Z,49.10
2018-02-09T05:32:25.214Z,45.08
2018-02-09T05:34:57.153Z,60.25
2018-02-09T05:37:28.442Z,40.63
2018-02-09T05:39:59.688Z,46.72
2018-02-09T05:42:28.964Z,46.60
2018-02-09T05:44:58.640Z,39.67
2018-02-09T05:47:29.491Z,51.53
2018-02-09T05:49:59.713Z,45.22
2018-02-09T05:52:30.695Z,36.67
2018-02-09T05:55:00.776Z,51.13
2018-02-09T05:57:30.159Z,45.10
2018-02-09T05:59:59.777Z,52.58
2018-02-09T06:02:28.980Z,46.85
2018-02-09T06:04:58.063Z,51.97
2018-02-09T06:07:28.130Z,40.20
2018-02-09T06:09:58.144Z,43.42
2018-02-09T06:12:28.322Z,48.97
2018-02-09T06:14:59.309Z,38.25
2018-02-09T06:17:28.444Z,50.22
2018-02-09T06:19:58.767Z,51.08
2018-02-09T06:22:28.199Z,48.35
2018-02-09T06:24:59.046Z,52.17
2018-02-09T06:27:28.807Z,42.17
2018-02-09T06:29:59.594Z,48.47
2018-02-09T06:32:28.974Z,52.22
2018-02-09T06:34:59.539Z,51.53
2018-02-09T06:37:28.766Z,48.83
2018-02-09T06:39:59.113Z,56.72
2018-02-09T06:42:28.340Z,48.03
2018-02-09T06:44:56.834Z,42.78
2018-02-09T06:47:26.166Z,54.75
2018-02-09T06:49:55.329Z,59.88
2018-02-09T06:52:24.387Z,46.17
2018-02-09T06:54:53.591Z,51.60
2018-02-09T06:57:22.431Z,52.60
2018-02-09T06:59:50.950Z,79.22
2018-02-09T07:02:20.060Z,70.78
2018-02-09T07:04:48.471Z,56.58
2018-02-09T07:07:16.766Z,53.70
2018-02-09T07:09:45.378Z,54.50
2018-02-09T07:12:13.683Z,55.88
2018-02-09T07:14:41.979Z,56.30
2018-02-09T07:17:10.315Z,48.13
2018-02-09T07:19:38.929Z,48.92
2018-02-09T07:22:08.970Z,52.10
2018-02-09T07:24:38.918Z,47.80
2018-02-09T07:27:08.247Z,60.88
2018-02-09T07:29:37.763Z,43.55
2018-02-09T07:32:06.536Z,56.58
2018-02-09T07:34:35.967Z,62.67
2018-02-09T07:37:05.106Z,66.75
2018-02-09T07:39:35.832Z,54.50
2018-02-09T07:42:05.485Z,63.40
2018-02-09T07:44:34.904Z,63.75
2018-02-09T07:47:05.310Z,61.50
2018-02-09T07:49:35.535Z,69.12
2018-02-09T07:52:04.726Z,60.67
2018-02-09T07:54:34.153Z,73.95
2018-02-09T07:57:03.844Z,69.75
2018-02-09T07:59:34.094Z,69.47
2018-02-09T08:02:03.355Z,53.70
2018-02-09T08:04:33.915Z,55.78
2018-02-09T08:07:02.795Z,53.95
2018-02-09T08:09:32.198Z,64.75
2018-02-09T08:12:01.368Z,62.53
2018-02-09T08:14:31.104Z,76.90
2018-02-09T08:17:00.189Z,60.17
2018-02-09T08:19:29.097Z,66.03
2018-02-09T08:21:59.086Z,69.45
2018-02-09T08:27:05.882Z,63.97
2018-02-09T08:29:35.085Z,60.38
2018-02-09T08:32:03.421Z,59.30
2018-02-09T08:34:31.760Z,70.60
2018-02-09T08:37:00.199Z,53.53
2018-02-09T08:39:29.362Z,66.15
2018-02-09T08:41:58.296Z,58.25
2018-02-09T08:44:27.635Z,65.47
2018-02-09T08:46:56.546Z,68.55
2018-02-09T08:49:26.411Z,60.33
2018-02-09T08:51:55.771Z,78.57
2018-02-09T08:54:25.277Z,69.80
2018-02-09T08:56:55.551Z,63.58
2018-02-09T08:59:24.199Z,76.28
2018-02-09T09:01:53.659Z,65.53
2018-02-09T09:04:23.342Z,75.43
2018-02-09T09:06:53.257Z,68.30
2018-02-09T09:09:23.186Z,70.43
2018-02-09T09:11:52.343Z,91.90
2018-02-09T09:14:21.386Z,83.72
2018-02-09T09:16:50.955Z,74.35
2018-02-09T09:19:20.788Z,86.85
2018-02-09T09:21:50.030Z,84.93
2018-02-09T09:24:18.998Z,71.35
2018-02-09T09:26:47.927Z,67.47
2018-02-09T09:29:17.227Z,71.15
2018-02-09T09:31:46.004Z,78.57
2018-02-09T09:34:14.334Z,84.32
2018-02-09T09:36:42.666Z,84.80
2018-02-09T09:39:10.971Z,93.53
2018-02-09T09:41:40.810Z,86.78
2018-02-09T09:44:09.147Z,85.85
2018-02-09T09:46:38.160Z,92.90
2018-02-09T09:49:07.178Z,84.65
2018-02-09T09:51:36.054Z,77.68
2018-02-09T09:54:05.494Z,81.87
2018-02-09T09:56:34.365Z,89.45
2018-02-09T09:59:04.202Z,84.22
2018-02-09T10:01:33.150Z,99.47
2018-02-09T10:04:01.703Z,84.32
2018-02-09T10:06:30.766Z,96.10
2018-02-09T10:08:59.103Z,88.22
2018-02-09T10:11:28.166Z,94.32
2018-02-09T10:13:56.498Z,85.07
2018-02-09T10:16:25.607Z,99.45
2018-02-09T10:18:54.672Z,109.80
2018-02-09T10:21:23.010Z,90.87
2018-02-09T10:23:52.119Z,89.00
2018-02-09T10:26:21.506Z,95.45
2018-02-09T10:28:49.813Z,109.78
2018-02-09T10:31:18.133Z,98.82
2018-02-09T10:33:46.486Z,98.78
2018-02-09T10:36:15.550Z,96.95
2018-02-09T10:38:43.898Z,93.68
2018-02-09T10:41:13.007Z,115.05
2018-02-09T10:43:41.379Z,97.00
2018-02-09T10:46:09.762Z,96.00
2018-02-09T10:48:38.106Z,114.95
2018-02-09T10:51:06.450Z,101.87
2018-02-09T10:53:34.754Z,106.93
2018-02-09T10:56:03.882Z,97.68
2018-02-09T10:58:32.205Z,100.15
2018-02-09T11:01:00.518Z,105.63
2018-02-09T11:03:28.818Z,96.70
2018-02-09T11:05:57.154Z,97.05
2018-02-09T11:08:25.450Z,110.28
2018-02-09T11:10:54.087Z,98.62
2018-02-09T11:13:27.983Z,104.50
2018-02-09T11:15:56.319Z,104.57
2018-02-09T11:18:25.419Z,91.15
2018-02-09T11:20:54.494Z,106.80
2018-02-09T11:23:23.078Z,98.15
2018-02-09T11:25:51.374Z,91.40
2018-02-09T11:28:19.684Z,97.35
2018-02-09T11:30:48.006Z,95.15
2018-02-09T11:33:17.103Z,109.00
2018-02-09T11:35:46.170Z,97.80
2018-02-09T11:38:14.530Z,85.47
2018-02-09T11:40:42.818Z,99.18
2018-02-09T11:43:11.150Z,99.65
2018-02-09T11:45:39.486Z,102.75
2018-02-09T11:48:07.830Z,92.85
2018-02-09T11:50:36.439Z,80.95
2018-02-09T11:53:04.738Z,81.57
2018-02-09T11:55:33.806Z,88.87
2018-02-09T11:58:02.139Z,82.32
2018-02-09T12:00:30.463Z,93.03
2018-02-09T12:02:58.795Z,89.50
2018-02-09T12:05:27.091Z,82.53
2018-02-09T12:07:55.591Z,95.17
2018-02-09T12:10:23.971Z,95.47
2018-02-09T12:12:52.270Z,99.30
2018-02-09T12:15:20.599Z,95.10
2018-02-09T12:17:48.894Z,81.60
2018-02-09T12:20:17.226Z,97.90
2018-02-09T12:22:45.518Z,90.57
2018-02-09T12:25:13.814Z,82.37
2018-02-09T12:27:43.662Z,88.78
2018-02-09T12:30:12.746Z,81.47
2018-02-09T12:32:41.075Z,88.50
2018-02-09T12:35:09.382Z,88.43
2018-02-09T12:37:37.699Z,84.90
2018-02-09T12:40:05.993Z,71.90
2018-02-09T12:42:34.286Z,84.57
2018-02-09T12:45:02.610Z,87.07
2018-02-09T12:47:31.671Z,76.47
2018-02-09T12:49:59.998Z,82.47
2018-02-09T12:52:29.063Z,79.93
2018-02-09T12:54:57.394Z,78.17
2018-02-09T12:57:25.722Z,80.77
2018-02-09T12:59:54.006Z,77.03
2018-02-09T13:02:22.302Z,74.82
2018-02-09T13:04:50.631Z,69.03
2018-02-09T13:07:19.026Z,71.07
2018-02-09T13:09:47.354Z,71.77
2018-02-09T13:15:14.195Z,86.07
2018-02-09T13:17:42.798Z,83.47
2018-02-09T13:20:11.086Z,83.07
2018-02-09T13:22:51.343Z,92.57
2018-02-09T13:25:19.914Z,88.12
2018-02-09T13:27:48.563Z,94.47
2018-02-09T13:30:16.866Z,91.05
2018-02-09T13:32:57.785Z,91.53
2018-02-09T13:35:26.118Z,88.55
2018-02-09T13:37:54.414Z,95.03
2018-02-09T13:40:22.789Z,96.80
2018-02-09T13:42:51.123Z,107.35
2018-02-09T13:45:19.434Z,85.03
2018-02-09T13:47:47.743Z,87.25
2018-02-09T13:50:16.150Z,84.10
2018-02-09T13:52:44.478Z,86.10
2018-02-09T13:55:13.570Z,80.83
2018-02-09T13:57:41.894Z,91.07
2018-02-09T14:00:10.238Z,91.12
2018-02-09T14:02:38.567Z,93.73
2018-02-09T14:05:06.858Z,95.37
2018-02-09T14:07:35.191Z,89.60
2018-02-09T14:10:03.490Z,88.07
2018-02-09T14:12:31.894Z,84.82
2018-02-09T14:15:00.189Z,89.67
2018-02-09T14:17:28.523Z,86.23
2018-02-09T14:19:56.818Z,92.20
2018-02-09T14:22:25.151Z,85.57
2018-02-09T14:24:53.487Z,93.37
2018-02-09T14:27:21.779Z,76.77
2018-02-09T14:29:50.070Z,89.37
2018-02-09T14:32:18.402Z,90.12
2018-02-09T14:34:46.691Z,91.47
2018-02-09T14:37:15.023Z,82.20
2018-02-09T14:39:43.360Z,90.87
2018-02-09T14:42:12.423Z,76.50
2018-02-09T14:44:40.746Z,93.17
2018-02-09T14:47:09.048Z,73.87
2018-02-09T14:49:37.379Z,78.22
2018-02-09T14:52:05.683Z,89.90
2018-02-09T14:54:34.030Z,79.40
2018-02-09T14:57:02.354Z,80.07
2018-02-09T14:59:31.452Z,86.43
2018-02-09T15:02:00.515Z,75.93
2018-02-09T15:04:28.802Z,76.60
2018-02-09T15:06:57.219Z,83.22
2018-02-09T15:09:25.549Z,91.05
2018-02-09T15:11:53.846Z,81.75
2018-02-09T15:14:22.177Z,87.93
2018-02-09T15:16:50.587Z,82.62
2018-02-09T15:19:19.694Z,104.55
2018-02-09T15:21:47.992Z,87.68
2018-02-09T15:24:17.095Z,80.13
2018-02-09T15:26:45.387Z,93.57
2018-02-09T15:29:14.455Z,87.37
2018-02-09T15:31:42.795Z,86.82
2018-02-09T15:34:11.890Z,99.45
2018-02-09T15:36:40.950Z,83.03
2018-02-09T15:39:09.287Z,84.32
2018-02-09T15:41:38.387Z,90.03
2018-02-09T15:44:06.682Z,93.12
2018-02-09T15:46:35.749Z,85.72
2018-02-09T15:49:04.086Z,79.30
2018-02-09T15:51:33.190Z,84.25
2018-02-09T15:54:02.288Z,99.13
2018-02-09T15:56:30.586Z,77.45
2018-02-09T15:58:59.694Z,81.50
2018-02-09T16:01:28.795Z,87.20
2018-02-09T16:03:57.135Z,77.45
2018-02-09T16:06:25.431Z,73.15
2018-02-09T16:08:53.733Z,90.85
2018-02-09T16:11:22.058Z,76.25
2018-02-09T16:13:50.367Z,90.82
2018-02-09T16:16:19.695Z,85.43
2018-02-09T16:18:47.994Z,87.05
2018-02-09T16:21:16.290Z,79.20
2018-02-09T16:23:44.623Z,99.85
2018-02-09T16:26:12.926Z,75.65
2018-02-09T16:28:41.994Z,80.43
2018-02-09T16:31:10.335Z,79.40
2018-02-09T16:33:39.439Z,89.55
2018-02-09T16:36:08.831Z,82.47
2018-02-09T16:38:37.131Z,83.82
2018-02-09T16:41:06.203Z,84.30
2018-02-09T16:43:34.568Z,83.28
2018-02-09T16:46:02.863Z,87.30
2018-02-09T16:48:31.287Z,81.75
2018-02-09T16:50:59.699Z,79.25
2018-02-09T16:53:28.134Z,77.90
2018-02-09T16:55:56.443Z,86.78
2018-02-09T16:58:24.744Z,81.95
2018-02-09T17:00:53.082Z,73.22
2018-02-09T17:03:21.386Z,78.15
2018-02-09T17:05:49.686Z,72.70
2018-02-09T17:08:18.111Z,82.75
2018-02-09T17:10:46.411Z,76.47
2018-02-09T17:13:14.909Z,81.97
2018-02-09T17:15:43.219Z,80.30
2018-02-09T17:18:12.288Z,77.25
2018-02-09T17:20:40.626Z,88.65
2018-02-09T17:23:08.936Z,85.57
2018-02-09T17:25:37.871Z,84.50
2018-02-09T17:28:06.999Z,68.03
2018-02-09T17:30:35.442Z,69.53
2018-02-09T17:33:03.771Z,82.97
2018-02-09T17:35:32.170Z,71.47
2018-02-09T17:38:00.514Z,84.65
2018-02-09T17:40:28.810Z,79.15
2018-02-09T17:42:57.150Z,91.85
2018-02-09T17:45:26.254Z,79.70
2018-02-09T17:47:55.354Z,79.47
2018-02-09T17:50:23.690Z,77.95
2018-02-09T17:52:53.062Z,89.30
2018-02-09T17:55:21.467Z,77.47
2018-02-09T17:57:50.544Z,84.10
2018-02-09T18:00:18.883Z,81.87
2018-02-09T18:02:47.214Z,85.80
2018-02-09T18:05:16.078Z,84.97
2018-02-09T18:07:44.374Z,77.47
2018-02-09T18:10:12.674Z,94.05
2018-02-09T18:12:41.010Z,76.57
2018-02-09T18:15:09.403Z,92.88
2018-02-09T18:17:37.750Z,87.37
2018-02-09T18:20:06.046Z,81.10
2018-02-09T18:22:34.342Z,93.37
2018-02-09T18:25:02.766Z,83.60
2018-02-09T18:27:31.874Z,80.47
2018-02-09T18:30:00.262Z,84.82
2018-02-09T18:32:28.603Z,81.78
2018-02-09T18:34:56.934Z,79.28
2018-02-09T18:37:25.266Z,80.87
2018-02-09T18:39:53.607Z,88.50
2018-02-09T18:42:21.915Z,85.90
2018-02-09T18:44:50.251Z,73.37
2018-02-09T18:47:18.595Z,83.18
2018-02-09T18:49:46.931Z,72.85
2018-02-09T18:52:15.262Z,90.25
2018-02-09T18:54:43.598Z,81.25
2018-02-09T18:57:11.894Z,77.37
2018-02-09T18:59:40.230Z,84.20
2018-02-09T19:02:08.563Z,85.07
2018-02-09T19:04:36.915Z,80.95
2018-02-09T19:07:05.260Z,83.82
2018-02-09T19:09:34.296Z,79.40
2018-02-09T19:12:02.626Z,82.12
2018-02-09T19:14:31.727Z,81.35
2018-02-09T19:17:00.802Z,74.40
2018-02-09T19:19:29.215Z,89.95
2018-02-09T19:21:57.573Z,89.15
2018-02-09T19:24:26.082Z,77.40
2018-02-09T19:26:54.884Z,73.60
2018-02-09T19:29:23.480Z,72.07
2018-02-09T19:31:51.937Z,82.65
2018-02-09T19:34:20.673Z,86.90
2018-02-09T19:36:49.269Z,77.75
2018-02-09T19:39:19.401Z,90.53
2018-02-09T19:41:48.508Z,80.93
2018-02-09T19:44:18.130Z,78.72
2018-02-09T19:46:46.519Z,89.35
2018-02-09T19:49:15.116Z,78.03
2018-02-09T19:51:44.246Z,92.68
2018-02-09T19:54:13.747Z,78.40
2018-02-09T19:56:42.446Z,88.05
2018-02-09T19:59:10.827Z,81.90
2018-02-09T20:01:39.126Z,96.18
2018-02-09T20:04:07.466Z,81.60
2018-02-09T20:06:35.802Z,104.53
2018-02-09T20:09:05.619Z,84.25
2018-02-09T20:11:33.946Z,94.37
2018-02-09T20:14:03.047Z,88.85
2018-02-09T20:16:32.162Z,98.53
2018-02-09T20:19:01.342Z,92.60
2018-02-09T20:21:29.642Z,107.15
2018-02-09T20:23:57.978Z,102.00
2018-02-09T20:26:26.322Z,104.43
2018-02-09T20:28:56.136Z,99.25
2018-02-09T20:31:24.711Z,93.90
2018-02-09T20:33:53.010Z,94.95
2018-02-09T20:36:21.319Z,104.20
2018-02-09T20:38:49.719Z,90.78
2018-02-09T20:41:18.195Z,117.72
2018-02-09T20:43:46.519Z,116.25
2018-02-09T20:46:15.595Z,110.47
2018-02-09T20:48:44.706Z,109.68
2018-02-09T20:51:13.022Z,98.22
2018-02-09T20:53:42.093Z,93.90
2018-02-09T20:56:10.607Z,95.20
2018-02-09T20:58:38.980Z,110.40
2018-02-09T21:01:07.372Z,105.32
2018-02-09T21:03:35.707Z,102.47
2018-02-09T21:06:04.306Z,106.32
2018-02-09T21:08:32.668Z,117.25
2018-02-09T21:11:00.970Z,105.30
2018-02-09T21:13:30.371Z,105.53
2018-02-09T21:15:59.662Z,111.65
2018-02-09T21:18:27.958Z,126.57
2018-02-09T21:20:57.082Z,102.30
2018-02-09T21:23:25.419Z,111.85
2018-02-09T21:25:53.727Z,113.28
2018-02-09T21:28:22.066Z,105.37
2018-02-09T21:30:51.140Z,115.88
2018-02-09T21:33:19.491Z,112.80
2018-02-09T21:35:47.895Z,106.75
2018-02-09T21:38:16.222Z,122.65
2018-02-09T21:40:44.526Z,115.90
2018-02-09T21:43:13.630Z,113.00
2018-02-09T21:45:42.939Z,114.43
2018-02-09T21:48:11.242Z,104.57
2018-02-09T21:50:40.314Z,125.45
2018-02-09T21:53:08.658Z,134.15
2018-02-09T21:55:37.014Z,109.63
2018-02-09T21:58:05.366Z,101.97
2018-02-09T22:00:33.675Z,118.50
2018-02-09T22:03:01.984Z,102.50
2018-02-09T22:05:30.326Z,110.28
2018-02-09T22:07:58.679Z,100.10
2018-02-09T22:10:27.746Z,115.97
2018-02-09T22:12:56.094Z,109.10
2018-02-09T22:15:24.399Z,110.85
2018-02-09T22:17:52.734Z,110.47
2018-02-09T22:20:21.074Z,106.12
2018-02-09T22:22:49.622Z,94.15
2018-02-09T22:25:17.935Z,108.15
2018-02-09T22:27:47.006Z,104.45
2018-02-09T22:30:15.347Z,110.60
2018-02-09T22:32:43.654Z,117.57
2018-02-09T22:35:11.994Z,108.85
2018-02-09T22:37:41.117Z,123.60
2018-02-09T22:40:10.294Z,104.22
2018-02-09T22:42:38.587Z,114.62
2018-02-09T22:45:06.931Z,130.73
2018-02-09T22:47:35.270Z,130.40
2018-02-09T22:50:03.579Z,115.65
2018-02-09T22:52:32.692Z,134.93
2018-02-09T22:55:01.796Z,127.78
2018-02-09T22:57:30.865Z,143.55
2018-02-09T22:59:59.218Z,132.50
2018-02-09T23:02:27.550Z,131.60
2018-02-09T23:04:55.854Z,143.37
2018-02-09T23:07:24.203Z,117.93
2018-02-09T23:09:52.503Z,122.90
2018-02-09T23:12:20.842Z,131.23
2018-02-09T23:14:49.941Z,140.40
2018-02-09T23:17:18.255Z,130.98
2018-02-09T23:19:47.166Z,141.43
2018-02-09T23:22:15.506Z,134.98
2018-02-09T23:24:43.839Z,129.30
2018-02-09T23:27:12.149Z,133.98
2018-02-09T23:29:40.482Z,137.40
2018-02-09T23:32:08.786Z,134.87
2018-02-09T23:34:37.902Z,135.48
2018-02-09T23:37:06.975Z,160.35
2018-02-09T23:39:35.493Z,146.07
2018-02-09T23:42:03.798Z,142.95
2018-02-09T23:44:32.867Z,126.38
2018-02-09T23:47:01.205Z,160.60
2018-02-09T23:49:29.542Z,139.95
2018-02-09T23:51:57.882Z,152.12
2018-02-09T23:54:26.983Z,136.30
2018-02-09T23:56:56.082Z,133.85
2018-02-09T23:59:25.190Z,135.75
